Time;durP1;ratioP1;P1;durP2;ratioP2;P2;SDS_P1;SDS_P2;PMS_P1;PMS_P2;Temp;Humidity;BMP_temperature;BMP_pressure;BME280_temperature;BME280_humidity;BME280_pressure;Samples;Min_cycle;Max_cycle;Signal;HPM_P1;HPM_P2
2023/03/11 00:01:12;;;;;;;1.55;0.60;;;;;;;10.95;53.31;96497.22;4503624;31;20084;-76
2023/03/11 00:03:37;;;;;;;0.52;0.40;;;;;;;10.81;53.59;96493.25;4503464;31;20420;-76
2023/03/11 00:06:03;;;;;;;0.90;0.40;;;;;;;10.70;54.02;96499.53;4489299;31;20098;-76
2023/03/11 00:08:29;;;;;;;0.73;0.40;;;;;;;10.71;53.79;96482.72;4503642;31;20092;-76
2023/03/11 00:10:59;;;;;;;1.98;0.60;;;;;;;10.66;53.99;96484.94;4489219;31;20104;-76
2023/03/11 00:13:25;;;;;;;1.60;0.57;;;;;;;10.53;54.08;96487.87;4489404;31;20084;-76
2023/03/11 00:15:54;;;;;;;2.45;0.68;;;;;;;10.37;54.12;96491.09;4489162;31;20107;-76
2023/03/11 00:18:24;;;;;;;1.05;0.52;;;;;;;10.53;54.22;96484.44;4503538;31;20665;-76
2023/03/11 00:20:49;;;;;;;0.47;0.40;;;;;;;10.63;53.60;96483.44;4476350;31;20126;-76
2023/03/11 00:23:15;;;;;;;1.55;0.55;;;;;;;10.60;53.58;96486.38;4489083;31;20088;-76
2023/03/11 00:25:43;;;;;;;1.45;0.60;;;;;;;10.68;53.79;96471.66;4503727;31;20110;-76
2023/03/11 00:28:09;;;;;;;0.75;0.45;;;;;;;10.74;53.38;96474.56;4489335;31;20386;-76
2023/03/11 00:30:36;;;;;;;0.80;0.60;;;;;;;10.44;53.82;96478.19;4489283;31;20130;-76
2023/03/11 00:33:02;;;;;;;1.23;0.47;;;;;;;10.62;53.19;96478.31;4489353;31;20083;-76
2023/03/11 00:35:30;;;;;;;1.83;0.50;;;;;;;10.43;53.36;96471.28;4502584;31;20099;-76
2023/03/11 00:37:57;;;;;;;2.15;0.60;;;;;;;10.35;53.60;96477.25;4489079;31;20123;-76
2023/03/11 00:40:25;;;;;;;1.70;0.50;;;;;;;10.40;53.89;96493.44;4503248;31;20111;-76
2023/03/11 00:42:50;;;;;;;0.73;0.50;;;;;;;10.78;52.56;96475.94;4488981;31;20119;-76
2023/03/11 00:45:16;;;;;;;1.95;0.50;;;;;;;10.51;53.02;96481.94;4488956;31;20419;-76
2023/03/11 00:47:41;;;;;;;2.15;0.60;;;;;;;10.64;52.81;96497.41;4503232;31;20087;-76
2023/03/11 00:50:08;;;;;;;1.73;0.60;;;;;;;10.46;52.83;96476.25;4503261;31;20125;-76
2023/03/11 00:52:34;;;;;;;1.17;0.60;;;;;;;10.42;52.85;96478.31;4475639;31;20084;-76
2023/03/11 00:55:00;;;;;;;1.98;0.70;;;;;;;10.33;53.00;96491.50;4503262;31;20158;-76
2023/03/11 00:57:27;;;;;;;1.25;0.50;;;;;;;10.55;52.54;96469.31;4488914;31;20104;-76
2023/03/11 00:59:53;;;;;;;2.25;0.60;;;;;;;10.55;52.44;96487.75;4502930;31;20088;-76
2023/03/11 01:02:19;;;;;;;0.75;0.50;;;;;;;10.65;52.03;96493.84;4503186;31;20099;-76
2023/03/11 01:04:44;;;;;;;1.95;0.60;;;;;;;10.65;51.88;96493.00;4503132;31;20102;-76
2023/03/11 01:07:10;;;;;;;1.87;0.65;;;;;;;10.66;51.51;96503.37;4503005;31;20506;-76
2023/03/11 01:09:35;;;;;;;2.45;0.70;;;;;;;10.59;51.35;96482.06;4503310;31;20228;-76
2023/03/11 01:12:00;;;;;;;4.43;0.60;;;;;;;10.49;51.54;96497.03;4503016;31;20103;-76
2023/03/11 01:14:26;;;;;;;1.83;0.70;;;;;;;10.52;51.11;96482.75;4503108;31;20076;-76
2023/03/11 01:16:52;;;;;;;0.93;0.50;;;;;;;10.58;51.15;96487.47;4488725;31;20388;-76
2023/03/11 01:19:18;;;;;;;3.08;0.80;;;;;;;10.57;51.02;96478.75;4503044;31;20092;-76
2023/03/11 01:21:45;;;;;;;1.67;0.60;;;;;;;10.47;51.53;96490.22;4503047;31;20141;-76
2023/03/11 01:24:10;;;;;;;2.12;0.60;;;;;;;10.45;51.26;96471.13;4503071;31;20130;-76
2023/03/11 01:26:35;;;;;;;2.95;0.60;;;;;;;10.26;51.71;96480.66;4488677;31;20102;-76
2023/03/11 01:29:01;;;;;;;3.15;0.70;;;;;;;10.21;51.44;96475.81;4503032;31;20100;-76
2023/03/11 01:31:26;;;;;;;1.42;0.60;;;;;;;9.93;52.26;96484.50;4503143;31;20104;-76
2023/03/11 01:33:52;;;;;;;2.22;0.60;;;;;;;10.51;50.99;96479.31;4503239;31;20122;-76
2023/03/11 01:36:17;;;;;;;1.80;0.70;;;;;;;10.22;51.46;96482.75;4488775;31;20096;-76
2023/03/11 01:38:43;;;;;;;2.15;0.60;;;;;;;10.13;51.47;96488.00;4503292;31;20110;-76
2023/03/11 01:41:10;;;;;;;2.53;0.68;;;;;;;10.04;51.97;96473.84;4503035;31;20080;-76
2023/03/11 01:43:44;;;;;;;3.25;0.90;;;;;;;10.08;51.74;96467.34;4503279;31;20157;-76
2023/03/11 01:46:34;;;;;;;2.28;0.80;;;;;;;9.99;52.16;96457.69;4502620;31;20123;-76
2023/03/11 01:49:01;;;;;;;2.55;0.70;;;;;;;10.19;51.56;96458.50;4488748;31;20148;-76
2023/03/11 01:51:29;;;;;;;1.20;0.62;;;;;;;10.30;51.06;96447.88;4502916;31;20438;-77
2023/03/11 01:53:56;;;;;;;2.72;0.80;;;;;;;9.74;51.60;96457.22;4475378;31;20198;-76
2023/03/11 01:56:22;;;;;;;3.10;0.80;;;;;;;9.86;51.41;96467.62;4488450;31;20161;-76
2023/03/11 01:58:51;;;;;;;2.05;0.73;;;;;;;9.80;50.91;96461.94;4502650;31;20096;-75
2023/03/11 02:01:17;;;;;;;2.85;0.70;;;;;;;9.94;50.20;96438.84;4488598;31;20072;-76
2023/03/11 02:03:42;;;;;;;1.05;0.50;;;;;;;9.86;49.49;96460.56;4502846;31;20095;-76
2023/03/11 02:06:11;;;;;;;1.45;0.57;;;;;;;9.92;49.44;96470.53;4502683;31;20087;-76
2023/03/11 02:08:38;;;;;;;2.85;0.70;;;;;;;9.84;49.37;96471.22;4475333;31;20459;-76
2023/03/11 02:11:05;;;;;;;3.45;0.60;;;;;;;10.02;48.46;96486.31;4488417;31;20092;-76
2023/03/11 02:13:33;;;;;;;3.80;0.80;;;;;;;9.89;48.76;96469.97;4502717;31;20135;-76
2023/03/11 02:15:59;;;;;;;;;;;;;;;9.93;48.62;96477.47;4488720;31;20096;-76
2023/03/11 02:18:25;;;;;;;2.12;0.70;;;;;;;9.95;48.89;96501.81;4502808;31;19995;-76
2023/03/11 02:21:27;;;;;;;2.67;0.77;;;;;;;9.89;49.18;96475.22;4475135;31;20084;-76
2023/03/11 02:24:06;;;;;;;4.65;0.70;;;;;;;9.80;49.69;96485.59;4502382;31;20081;-76
2023/03/11 02:26:54;;;;;;;2.55;0.80;;;;;;;10.19;49.12;96464.59;4488175;31;20161;-76
2023/03/11 02:29:21;;;;;;;2.28;0.80;;;;;;;10.07;49.53;96483.28;4488270;31;20118;-76
2023/03/11 02:31:47;;;;;;;2.17;0.70;;;;;;;10.01;49.75;96480.22;4488150;31;20113;-76
2023/03/11 02:34:22;;;;;;;3.53;0.90;;;;;;;9.92;49.80;96486.31;4488108;31;20451;-76
2023/03/11 02:36:48;;;;;;;2.78;1.17;;;;;;;10.07;49.47;96478.84;4488219;31;20100;-76
2023/03/11 02:39:13;;;;;;;4.37;1.00;;;;;;;9.98;49.19;96477.88;4502307;31;20075;-76
2023/03/11 02:41:43;;;;;;;2.10;0.65;;;;;;;9.92;49.98;96485.47;4487761;31;20450;-76
2023/03/11 02:44:10;;;;;;;3.17;0.90;;;;;;;9.99;49.09;96484.81;4488030;31;20153;-76
2023/03/11 02:46:37;;;;;;;4.12;0.90;;;;;;;10.23;48.67;96497.53;4502248;31;20084;-76
2023/03/11 02:49:03;;;;;;;2.53;0.90;;;;;;;10.27;48.23;96499.91;4502276;31;20096;-76
2023/03/11 02:51:29;;;;;;;5.47;0.90;;;;;;;10.19;47.60;96480.37;4502230;31;20352;-76
2023/03/11 02:53:57;;;;;;;1.62;0.70;;;;;;;9.92;48.00;96477.59;4502026;31;20072;-76
2023/03/11 02:56:22;;;;;;;2.97;0.82;;;;;;;9.99;47.89;96483.97;4487739;31;20440;-76
2023/03/11 02:58:48;;;;;;;5.12;0.90;;;;;;;9.77;47.97;96483.25;4503407;31;20091;-76
2023/03/11 03:01:13;;;;;;;2.90;0.80;;;;;;;10.08;47.12;96492.84;4504092;31;20106;-76
2023/03/11 03:03:39;;;;;;;3.28;1.05;;;;;;;10.14;47.24;96494.91;4504114;31;20125;-76
2023/03/11 03:06:04;;;;;;;3.10;0.65;;;;;;;10.28;46.38;96462.13;4503848;31;20110;-76
2023/03/11 03:08:30;;;;;;;3.15;0.85;;;;;;;10.15;46.48;96507.09;4504044;31;20413;-76
2023/03/11 03:10:55;;;;;;;3.60;0.70;;;;;;;9.92;46.53;96517.03;4489500;31;20423;-76
2023/03/11 03:13:21;;;;;;;2.37;0.90;;;;;;;10.24;46.07;96522.91;4489511;31;20068;-76
2023/03/11 03:15:46;;;;;;;4.32;0.75;;;;;;;9.96;46.62;96519.25;4489606;31;20151;-76
2023/03/11 03:18:12;;;;;;;3.67;0.75;;;;;;;9.89;46.87;96523.41;4503968;31;20110;-76
2023/03/11 03:20:37;;;;;;;2.60;0.70;;;;;;;9.97;46.30;96513.03;4503958;31;20103;-76
2023/03/11 03:23:02;;;;;;;3.60;0.70;;;;;;;9.68;46.92;96525.28;4489664;31;20094;-76
2023/03/11 03:25:28;;;;;;;1.98;0.70;;;;;;;9.94;46.29;96529.06;4503867;31;20108;-76
2023/03/11 03:27:53;;;;;;;4.68;0.80;;;;;;;9.80;46.47;96540.81;4503856;31;20080;-76
2023/03/11 03:30:19;;;;;;;2.90;0.65;;;;;;;9.79;46.14;96548.84;4503849;31;20106;-76
2023/03/11 03:32:44;;;;;;;1.42;0.70;;;;;;;9.68;46.09;96534.00;4503771;31;20102;-76
2023/03/11 03:35:10;;;;;;;2.12;0.75;;;;;;;9.64;45.37;96532.63;4503991;31;20193;-76
2023/03/11 03:37:36;;;;;;;2.12;0.75;;;;;;;9.80;42.18;96537.38;4504019;31;20459;-76
2023/03/11 03:40:06;;;;;;;1.35;0.50;;;;;;;9.46;41.70;96569.19;4503838;31;20080;-76
2023/03/11 03:42:33;;;;;;;2.97;0.57;;;;;;;9.47;41.32;96533.25;4489841;31;20076;-76
2023/03/11 03:44:58;;;;;;;3.00;0.65;;;;;;;9.57;41.13;96495.50;4503672;31;20133;-76
2023/03/11 03:47:24;;;;;;;2.05;0.70;;;;;;;9.27;41.71;96524.44;4503744;31;20101;-76
2023/03/11 03:49:50;;;;;;;4.47;0.80;;;;;;;9.42;41.92;96523.94;4503731;31;20470;-76
2023/03/11 03:52:15;;;;;;;4.78;0.80;;;;;;;10.06;40.93;96523.69;4503653;31;20416;-76
2023/03/11 03:54:40;;;;;;;2.45;0.70;;;;;;;9.41;41.50;96561.72;4503881;31;20395;-77
2023/03/11 03:57:06;;;;;;;1.37;0.60;;;;;;;9.53;41.26;96538.78;4503676;31;20141;-76
2023/03/11 03:59:31;;;;;;;0.73;0.50;;;;;;;9.10;42.34;96552.97;4503350;31;20136;-76
2023/03/11 04:01:57;;;;;;;2.83;0.65;;;;;;;9.24;41.85;96521.09;4503656;31;20084;-76
2023/03/11 04:04:22;;;;;;;2.20;0.50;;;;;;;9.29;41.93;96539.13;4489315;31;20116;-76
2023/03/11 04:06:47;;;;;;;3.08;0.80;;;;;;;9.19;42.37;96552.19;4503679;31;20088;-76
2023/03/11 04:09:14;;;;;;;3.30;0.95;;;;;;;9.43;42.37;96553.69;4488966;31;20088;-76
2023/03/11 04:11:39;;;;;;;3.15;0.73;;;;;;;9.18;42.95;96552.31;4503653;31;20114;-77
2023/03/11 04:14:05;;;;;;;4.15;0.77;;;;;;;9.47;42.29;96547.22;4489264;31;20097;-76
2023/03/11 04:16:31;;;;;;;2.50;0.68;;;;;;;9.53;42.86;96564.25;4503456;31;20088;-76
2023/03/11 04:18:56;;;;;;;3.85;0.77;;;;;;;9.07;43.00;96576.88;4503591;31;20088;-76
2023/03/11 04:21:22;;;;;;;1.48;0.50;;;;;;;8.89;44.03;96575.78;4503446;31;20072;-76
2023/03/11 04:23:47;;;;;;;2.03;0.80;;;;;;;8.97;43.99;96589.94;4503538;31;20088;-76
2023/03/11 04:26:13;;;;;;;1.98;0.60;;;;;;;8.94;44.05;96594.59;4503484;31;20112;-76
2023/03/11 04:28:38;;;;;;;2.40;0.62;;;;;;;8.99;43.29;96585.38;4503166;31;20076;-76
2023/03/11 04:31:04;;;;;;;3.08;0.80;;;;;;;8.75;42.85;96588.25;4488939;31;20119;-76
2023/03/11 04:33:29;;;;;;;3.10;0.80;;;;;;;8.73;42.07;96584.06;4503508;31;20349;-76
2023/03/11 04:35:54;;;;;;;3.53;1.50;;;;;;;8.55;42.10;96604.78;4488879;31;20127;-76
2023/03/11 04:38:20;;;;;;;5.00;0.93;;;;;;;8.67;41.97;96593.28;4489107;31;20195;-76
2023/03/11 04:40:45;;;;;;;4.05;0.90;;;;;;;8.76;40.12;96579.41;4488880;31;20099;-76
2023/03/11 04:43:11;;;;;;;6.57;1.20;;;;;;;8.75;39.65;96585.63;4488979;31;20447;-76
2023/03/11 04:45:41;;;;;;;13.65;1.20;;;;;;;8.28;38.74;96582.44;4488994;31;20134;-76
2023/03/11 04:48:07;;;;;;;10.13;1.15;;;;;;;8.32;37.24;96565.47;4503252;31;20107;-76
2023/03/11 04:50:32;;;;;;;13.23;1.40;;;;;;;8.27;36.56;96586.03;4489030;31;20101;-76
2023/03/11 04:52:58;;;;;;;12.68;1.50;;;;;;;8.03;35.96;96583.56;4503240;31;20080;-76
2023/03/11 04:55:23;;;;;;;26.25;3.15;;;;;;;7.81;35.76;96576.56;4503194;31;20085;-76
2023/03/11 04:57:49;;;;;;;22.48;2.00;;;;;;;7.71;36.41;96578.22;4503067;31;20076;-76
2023/03/11 05:00:15;;;;;;;23.05;1.92;;;;;;;7.41;37.39;96609.31;4502888;31;20415;-76
2023/03/11 05:02:41;;;;;;;27.08;2.10;;;;;;;7.48;37.99;96609.69;4488941;31;20092;-76
2023/03/11 05:05:08;;;;;;;22.83;2.45;;;;;;;7.15;38.74;96613.09;4503199;31;20092;-76
2023/03/11 05:07:34;;;;;;;27.70;2.55;;;;;;;7.53;38.19;96614.56;4488880;31;20113;-76
2023/03/11 05:10:00;;;;;;;23.73;2.53;;;;;;;7.88;37.86;96590.88;4503156;31;20072;-76
2023/03/11 05:12:25;;;;;;;23.27;2.47;;;;;;;7.50;39.00;96625.31;4503053;31;20115;-76
2023/03/11 05:14:51;;;;;;;29.17;3.78;;;;;;;7.46;39.38;96636.00;4503108;31;20397;-76
2023/03/11 05:17:18;;;;;;;21.25;2.40;;;;;;;7.43;39.38;96617.06;4488737;31;20424;-76
2023/03/11 05:19:43;;;;;;;15.85;1.70;;;;;;;7.44;39.46;96618.75;4502614;31;20119;-76
2023/03/11 05:22:09;;;;;;;19.10;1.77;;;;;;;7.25;39.89;96627.16;4488360;31;20092;-76
2023/03/11 05:24:35;;;;;;;10.23;1.52;;;;;;;7.41;39.86;96618.97;4503358;31;20072;-76
2023/03/11 05:27:01;;;;;;;17.92;2.72;;;;;;;7.33;39.93;96616.09;4503095;31;20395;-76
2023/03/11 05:29:26;;;;;;;19.58;2.53;;;;;;;7.08;40.58;96616.16;4488800;31;20397;-76
2023/03/11 05:31:52;;;;;;;17.42;1.98;;;;;;;7.52;39.95;96621.59;4488928;31;20119;-76
2023/03/11 05:34:18;;;;;;;22.33;2.17;;;;;;;7.33;40.42;96629.19;4503144;31;20431;-76
2023/03/11 05:36:43;;;;;;;13.48;1.90;;;;;;;7.30;40.83;96632.87;4502710;31;20092;-75
2023/03/11 05:39:08;;;;;;;18.58;1.95;;;;;;;7.48;40.34;96636.72;4488656;31;20076;-76
2023/03/11 05:41:34;;;;;;;19.83;1.80;;;;;;;7.14;40.52;96637.59;4488620;31;20136;-76
2023/03/11 05:44:00;;;;;;;16.05;1.50;;;;;;;7.24;40.75;96634.19;4502963;31;20106;-76
2023/03/11 05:46:25;;;;;;;17.60;2.62;;;;;;;7.17;41.04;96647.87;4502901;31;20080;-76
2023/03/11 05:48:51;;;;;;;14.20;1.83;;;;;;;7.61;40.26;96656.72;4488525;31;20088;-76
2023/03/11 05:51:16;;;;;;;10.95;1.50;;;;;;;7.48;40.31;96664.72;4488489;31;20092;-76
2023/03/11 05:53:47;;;;;;;13.85;2.35;;;;;;;7.46;39.86;96664.00;4502809;31;20080;-76
2023/03/11 05:56:16;;;;;;;13.02;1.70;;;;;;;6.94;40.57;96687.06;4503071;31;20111;-76
2023/03/11 05:58:42;;;;;;;14.10;1.40;;;;;;;6.97;40.86;96673.72;4488293;31;20140;-76
2023/03/11 06:01:09;;;;;;;16.08;1.50;;;;;;;7.65;39.48;96695.69;4502630;31;20100;-76
2023/03/11 06:03:35;;;;;;;6.85;1.33;;;;;;;7.44;39.53;96668.53;4488551;31;20100;-76
2023/03/11 06:06:00;;;;;;;7.47;1.12;;;;;;;7.41;39.27;96671.34;4502799;31;20137;-76
2023/03/11 06:08:26;;;;;;;10.00;1.10;;;;;;;7.08;39.45;96667.69;4488474;31;20084;-76
2023/03/11 06:10:51;;;;;;;10.93;1.25;;;;;;;7.04;39.59;96684.59;4502699;31;20093;-76
2023/03/11 06:13:17;;;;;;;14.13;1.60;;;;;;;7.25;39.35;96692.63;4502647;31;20457;-76
2023/03/11 06:15:42;;;;;;;7.60;1.05;;;;;;;7.08;39.99;96689.47;4502493;31;20087;-76
2023/03/11 06:18:08;;;;;;;5.60;1.00;;;;;;;7.01;40.19;96685.66;4502562;31;20115;-76
2023/03/11 06:20:33;;;;;;;9.05;1.45;;;;;;;7.02;40.12;96694.34;4502480;31;20140;-76
2023/03/11 06:22:59;;;;;;;10.57;1.67;;;;;;;6.75;41.09;96710.28;4502684;31;20115;-76
2023/03/11 06:25:24;;;;;;;9.05;1.27;;;;;;;6.68;41.19;96708.13;4502599;31;20080;-76
2023/03/11 06:27:52;;;;;;;5.68;0.73;;;;;;;7.22;40.54;96719.03;4502572;31;20358;-76
2023/03/11 06:30:18;;;;;;;8.10;1.00;;;;;;;7.23;39.98;96734.66;4488394;31;20120;-76
2023/03/11 06:32:47;;;;;;;3.55;0.98;;;;;;;7.19;40.11;96748.91;4501193;31;20092;-76
2023/03/11 06:35:13;;;;;;;3.72;1.00;;;;;;;7.07;40.55;96757.69;4488017;31;20463;-78
2023/03/11 06:37:38;;;;;;;5.70;1.00;;;;;;;7.21;39.97;96754.03;4502374;31;20137;-78
2023/03/11 06:40:06;;;;;;;4.68;1.05;;;;;;;7.32;39.41;96734.91;4487895;31;20100;-78
2023/03/11 06:42:32;;;;;;;5.22;1.00;;;;;;;7.09;38.75;96767.09;4488100;31;20123;-78
2023/03/11 06:44:57;;;;;;;1.42;0.77;;;;;;;6.92;39.56;96766.66;4502371;31;20089;-75
2023/03/11 06:47:23;;;;;;;3.05;1.00;;;;;;;7.10;38.89;96762.69;4487965;31;20075;-75
2023/03/11 06:49:49;;;;;;;2.67;0.90;;;;;;;7.12;39.32;96776.50;4487839;31;20104;-75
2023/03/11 06:52:15;;;;;;;6.97;1.30;;;;;;;7.15;38.99;96744.03;4502540;31;20118;-75
2023/03/11 06:54:40;;;;;;;2.75;0.90;;;;;;;6.94;39.35;96773.44;4502386;31;20538;-75
2023/03/11 06:57:07;;;;;;;3.97;1.00;;;;;;;7.24;38.22;96782.59;4502352;31;20088;-75
2023/03/11 06:59:32;;;;;;;6.70;1.10;;;;;;;6.75;38.96;96778.31;4487743;31;20444;-75
2023/03/11 07:01:58;;;;;;;2.83;1.00;;;;;;;7.11;38.52;96776.59;4502333;31;20161;-75
2023/03/11 07:04:23;;;;;;;3.30;1.05;;;;;;;6.56;39.03;96795.31;4502175;31;20375;-75
2023/03/11 07:06:49;;;;;;;3.55;0.90;;;;;;;6.37;38.65;96766.97;4502228;31;20069;-75
2023/03/11 07:09:14;;;;;;;4.65;0.98;;;;;;;5.95;39.35;96774.25;4501961;31;20106;-75
2023/03/11 07:11:40;;;;;;;4.45;1.00;;;;;;;6.01;39.09;96762.56;4501835;31;20076;-75
2023/03/11 07:14:08;;;;;;;1.77;0.90;;;;;;;6.05;39.45;96780.53;4501917;31;20435;-75
2023/03/11 07:16:33;;;;;;;2.90;0.90;;;;;;;6.10;38.82;96786.28;4487510;31;20554;-75
2023/03/11 07:19:01;;;;;;;2.28;0.90;;;;;;;6.16;38.76;96773.72;4501778;31;20088;-75
2023/03/11 07:21:27;;;;;;;;;;;;;;;6.33;38.08;96804.75;4502194;31;20166;-75
2023/03/11 07:23:54;;;;;;;2.37;0.82;;;;;;;6.29;38.10;96782.38;4501697;31;19972;-75
2023/03/11 07:26:20;;;;;;;2.27;0.80;;;;;;;6.23;38.26;96808.97;4501848;31;20080;-75
2023/03/11 07:28:48;;;;;;;2.28;1.00;;;;;;;6.54;38.52;96796.38;4487337;31;20252;-76
2023/03/11 07:31:18;;;;;;;2.03;0.70;;;;;;;7.03;37.07;96798.94;4487665;31;20403;-75
2023/03/11 07:33:44;;;;;;;3.08;0.98;;;;;;;7.08;37.07;96822.16;4501625;31;20088;-75
2023/03/11 07:36:14;;;;;;;1.70;0.80;;;;;;;6.85;36.87;96795.03;4501607;31;20102;-75
2023/03/11 07:38:40;;;;;;;3.25;0.82;;;;;;;7.11;37.16;96813.25;4501805;31;20100;-75
2023/03/11 07:41:06;;;;;;;3.65;1.02;;;;;;;7.74;35.64;96806.03;4494346;31;20108;-73
2023/03/11 07:43:32;;;;;;;3.30;0.90;;;;;;;8.00;35.84;96802.28;4486196;32;20084;-73
2023/03/11 07:46:17;;;;;;;2.58;0.77;;;;;;;7.66;35.47;96804.78;4487938;32;20141;-76
2023/03/11 07:48:43;;;;;;;2.90;1.10;;;;;;;7.51;35.78;96812.97;4488010;32;20156;-74
2023/03/11 07:51:11;;;;;;;3.60;1.10;;;;;;;7.28;35.61;96808.47;4488231;32;20084;-75
2023/03/11 07:53:36;;;;;;;2.75;0.80;;;;;;;7.53;35.60;96785.69;4488029;32;20107;-79
2023/03/11 07:56:03;;;;;;;2.83;1.10;;;;;;;7.40;35.80;96777.09;4488074;32;20072;-76
2023/03/11 07:58:28;;;;;;;5.32;0.93;;;;;;;7.50;36.07;96795.59;4473803;32;20487;-76
2023/03/11 08:00:55;;;;;;;3.45;0.80;;;;;;;7.49;35.77;96779.00;4473400;32;20111;-75
2023/03/11 08:03:23;;;;;;;2.25;1.05;;;;;;;7.18;36.20;96828.41;4487967;32;20085;-75
2023/03/11 08:05:48;;;;;;;3.03;0.90;;;;;;;6.97;36.38;96809.84;4487718;32;20394;-75
2023/03/11 08:08:13;;;;;;;2.65;0.80;;;;;;;6.71;37.15;96831.81;4487842;32;20149;-75
2023/03/11 08:10:39;;;;;;;2.72;0.95;;;;;;;6.86;36.61;96831.56;4487566;32;20102;-75
2023/03/11 08:13:04;;;;;;;2.22;0.90;;;;;;;6.47;37.01;96817.72;4487704;32;20501;-73
2023/03/11 08:15:30;;;;;;;2.50;0.95;;;;;;;6.36;36.75;96801.94;4487710;32;20073;-76
2023/03/11 08:17:55;;;;;;;3.42;0.90;;;;;;;7.09;35.88;96829.91;4487957;32;20092;-74
2023/03/11 08:20:21;;;;;;;2.70;1.02;;;;;;;7.27;35.73;96825.13;4487912;32;20100;-73
2023/03/11 08:22:46;;;;;;;3.67;0.90;;;;;;;7.42;36.59;96849.38;4487889;32;20192;-77
2023/03/11 08:25:12;;;;;;;4.65;0.90;;;;;;;7.63;35.69;96844.34;4487750;32;20126;-77
2023/03/11 08:27:37;;;;;;;4.68;1.10;;;;;;;8.17;35.27;96828.97;4487840;32;20436;-76
2023/03/11 08:30:04;;;;;;;5.57;1.02;;;;;;;8.39;34.12;96857.88;4487838;32;20110;-78
2023/03/11 08:32:30;;;;;;;3.87;1.05;;;;;;;7.52;35.27;96890.63;4460521;32;20080;-74
2023/03/11 08:34:56;;;;;;;4.87;0.90;;;;;;;7.17;35.86;96846.88;4487909;32;20468;-78
2023/03/11 08:37:22;;;;;;;2.80;0.82;;;;;;;8.07;35.15;96858.56;4473692;32;20135;-77
2023/03/11 08:39:47;;;;;;;2.15;0.80;;;;;;;7.61;35.30;96861.13;4487854;32;20088;-78
2023/03/11 08:42:12;;;;;;;2.40;0.90;;;;;;;7.06;37.04;96898.19;4487745;32;20085;-73
2023/03/11 08:44:38;;;;;;;2.25;0.80;;;;;;;7.35;36.65;96895.28;4487938;32;20106;-73
2023/03/11 08:47:03;;;;;;;2.95;1.05;;;;;;;7.49;36.07;96889.06;4488015;31;20088;-74
2023/03/11 08:49:29;;;;;;;2.33;0.73;;;;;;;7.50;36.38;96890.75;4496073;31;20092;-73
2023/03/11 08:51:54;;;;;;;1.80;0.80;;;;;;;7.68;35.52;96893.78;4487702;32;20089;-72
2023/03/11 08:54:20;;;;;;;2.95;0.80;;;;;;;8.04;35.87;96899.91;4487287;32;20340;-78
2023/03/11 08:56:46;;;;;;;3.70;1.08;;;;;;;7.93;35.44;96913.78;4486839;32;20128;-73
2023/03/11 08:59:12;;;;;;;3.00;0.85;;;;;;;7.85;35.41;96882.06;4487532;32;20100;-73
2023/03/11 09:01:38;;;;;;;2.30;0.68;;;;;;;7.75;35.86;96936.97;4487565;32;20080;-74
2023/03/11 09:04:04;;;;;;;3.95;1.05;;;;;;;7.54;35.66;96907.06;4487614;32;20103;-81
2023/03/11 09:06:29;;;;;;;3.97;1.10;;;;;;;7.24;36.43;96887.38;4487438;32;20136;-75
2023/03/11 09:08:55;;;;;;;1.87;0.80;;;;;;;6.84;37.13;96914.59;4487374;32;20088;-72
2023/03/11 09:11:21;;;;;;;2.78;1.00;;;;;;;6.99;36.98;96881.28;4487437;32;20107;-76
2023/03/11 09:13:47;;;;;;;3.85;0.93;;;;;;;6.99;37.03;96896.12;4459972;32;20111;-82
2023/03/11 09:16:19;;;;;;;3.70;0.88;;;;;;;7.07;36.96;96910.38;4487548;32;20093;-72
2023/03/11 09:18:44;;;;;;;7.05;1.20;;;;;;;6.70;37.95;96904.22;4487174;32;20092;-73
2023/03/11 09:21:10;;;;;;;6.45;0.93;;;;;;;6.99;37.94;96883.91;4487488;31;20124;-79
2023/03/11 09:23:35;;;;;;;4.62;0.90;;;;;;;7.02;37.09;96899.37;4494177;31;20108;-72
2023/03/11 09:26:01;;;;;;;6.75;1.10;;;;;;;6.77;37.37;96933.44;4503023;31;20154;-72
2023/03/11 09:28:26;;;;;;;4.62;1.05;;;;;;;6.50;37.88;96910.84;4503033;31;20087;-78
2023/03/11 09:30:52;;;;;;;2.33;0.75;;;;;;;6.29;38.25;96908.72;4488645;31;20370;-73
2023/03/11 09:33:17;;;;;;;5.28;1.00;;;;;;;6.26;38.32;96921.19;4502824;31;20458;-75
2023/03/11 09:35:43;;;;;;;1.80;0.60;;;;;;;6.09;38.97;96923.13;4502955;31;20152;-72
2023/03/11 09:38:09;;;;;;;5.22;0.80;;;;;;;6.10;38.87;96922.22;4502950;31;20096;-80
2023/03/11 09:40:52;;;;;;;3.20;0.88;;;;;;;6.61;37.80;96918.78;4499035;31;20622;-74
2023/03/11 09:43:26;;;;;;;3.70;0.93;;;;;;;6.57;38.05;96926.97;4472458;32;20115;-81
2023/03/11 09:46:05;;;;;;;3.92;0.90;;;;;;;6.72;38.39;96931.13;4472828;32;20175;-80
2023/03/11 09:48:43;;;;;;;3.25;0.90;;;;;;;6.85;38.29;96915.41;4472808;32;20454;-77
2023/03/11 09:51:16;;;;;;;6.50;1.10;;;;;;;6.59;38.62;96904.16;4472847;32;20460;-84
2023/03/11 09:53:44;;;;;;;2.50;0.85;;;;;;;6.93;38.43;96920.13;4459760;32;20107;-78
2023/03/11 09:56:12;;;;;;;;;;;;;;;6.73;38.79;96922.34;4487143;32;20100;-87
2023/03/11 09:58:46;;;;;;;3.65;1.00;;;;;;;6.46;39.64;96931.13;4486766;32;20002;-78
2023/03/11 10:01:27;;;;;;;6.68;0.88;;;;;;;6.23;39.95;96929.22;4472721;32;20517;-83
2023/03/11 10:03:59;;;;;;;5.10;1.02;;;;;;;6.76;39.53;96923.91;4486972;32;20329;-89
2023/03/11 10:06:28;;;;;;;4.43;0.98;;;;;;;6.45;39.58;96928.63;4472555;32;20108;-86
2023/03/11 10:09:05;;;;;;;4.03;0.70;;;;;;;6.57;38.98;96950.50;4472646;32;20428;-75
2023/03/11 10:11:43;;;;;;;1.67;0.80;;;;;;;7.06;38.42;96942.72;4487006;32;20064;-77
2023/03/11 10:14:41;;;;;;;3.42;0.70;;;;;;;6.04;39.88;96932.22;4486876;32;20110;-75
2023/03/11 10:17:25;;;;;;;2.42;0.88;;;;;;;5.81;40.03;96921.47;4479778;32;20118;-74
2023/03/11 10:20:30;;;;;;;4.80;0.75;;;;;;;5.91;40.22;96940.03;4486848;32;20085;-76
2023/03/11 10:23:37;;;;;;;2.70;1.20;;;;;;;6.27;39.36;96968.13;4469700;32;20466;-74
2023/03/11 10:26:19;;;;;;;11.52;1.10;;;;;;;6.36;39.64;96977.16;4407143;32;20146;-81
2023/03/11 10:28:52;;;;;;;5.12;1.50;;;;;;;5.83;40.59;96964.03;4394503;32;20155;-72
2023/03/11 10:31:25;;;;;;;7.25;1.08;;;;;;;5.94;40.89;96988.63;4393989;32;20094;-80
2023/03/11 10:34:14;;;;;;;2.70;0.70;;;;;;;5.77;41.99;96974.03;4381940;32;20082;-82
2023/03/11 10:36:50;;;;;;;3.45;0.95;;;;;;;5.72;41.56;96995.25;4407063;32;20109;-82
2023/03/11 10:39:15;;;;;;;3.40;0.70;;;;;;;6.24;41.26;96998.91;4407152;32;20128;-81
2023/03/11 10:41:53;;;;;;;4.25;0.90;;;;;;;6.76;40.08;96997.19;4393846;32;20146;-76
2023/03/11 10:44:24;;;;;;;7.63;0.90;;;;;;;6.80;39.86;97002.12;4406908;32;20085;-81
2023/03/11 10:46:50;;;;;;;5.50;0.80;;;;;;;6.68;40.58;96995.06;4394358;32;20100;-81
2023/03/11 10:49:16;;;;;;;7.97;1.00;;;;;;;6.67;40.29;96999.47;4394106;32;20118;-81
2023/03/11 10:51:47;;;;;;;5.80;0.90;;;;;;;6.93;39.66;97012.56;4406811;32;20556;-80
2023/03/11 10:54:31;;;;;;;4.82;0.80;;;;;;;7.22;39.50;97022.81;4394202;32;20479;-81
2023/03/11 10:57:02;;;;;;;3.33;0.80;;;;;;;7.02;39.80;97013.72;4406714;32;20090;-83
2023/03/11 10:59:32;;;;;;;7.62;1.00;;;;;;;7.25;39.46;97012.16;4406640;32;20093;-86
2023/03/11 11:02:20;;;;;;;8.40;1.50;;;;;;;7.47;39.32;97017.56;4407327;32;20160;-84
2023/03/11 11:04:45;;;;;;;5.35;1.00;;;;;;;7.18;39.43;97035.28;4486112;32;20057;-84
2023/03/11 11:07:30;;;;;;;5.85;1.20;;;;;;;7.39;38.74;97011.19;4486056;32;20557;-78
2023/03/11 11:10:26;;;;;;;3.08;0.80;;;;;;;7.41;38.78;97004.87;4472143;32;20122;-77
2023/03/11 11:12:51;;;;;;;5.03;0.88;;;;;;;7.45;38.65;97014.19;4469499;32;20131;-77
2023/03/11 11:15:24;;;;;;;5.18;1.00;;;;;;;7.20;38.49;97025.53;4486016;32;20080;-83
2023/03/11 11:17:49;;;;;;;6.07;1.10;;;;;;;7.04;38.90;97004.00;4486200;32;20076;-85
2023/03/11 11:20:17;;;;;;;5.82;1.12;;;;;;;7.17;38.65;97007.44;4460605;32;20391;-77
2023/03/11 11:22:49;;;;;;;4.05;0.80;;;;;;;7.11;38.39;96994.78;4473892;32;20521;-75
2023/03/11 11:25:41;;;;;;;3.17;0.80;;;;;;;7.01;38.87;97010.28;4487755;32;20140;-74
2023/03/11 11:28:16;;;;;;;6.15;1.25;;;;;;;6.83;39.22;96980.13;4469400;32;20148;-82
2023/03/11 11:30:51;;;;;;;1.70;0.90;;;;;;;6.84;39.00;97008.81;4472712;32;20398;-79
2023/03/11 11:33:24;;;;;;;2.55;0.95;;;;;;;6.86;39.21;97038.34;4486352;32;20167;-78
2023/03/11 11:35:56;;;;;;;3.45;0.70;;;;;;;7.08;38.96;97021.16;4486952;32;20103;-79
2023/03/11 11:38:23;;;;;;;17.33;1.20;;;;;;;7.52;38.64;96990.19;4487851;32;20092;-79
2023/03/11 11:40:49;;;;;;;4.93;1.05;;;;;;;7.21;38.52;97047.34;4487940;32;20148;-79
2023/03/11 11:43:23;;;;;;;3.45;1.17;;;;;;;7.26;38.85;97022.53;4473746;32;20100;-78